Date,TemperatureHighF,TemperatureAvgF,TemperatureLowF,DewpointHighF,DewpointAvgF,DewpointLowF,HumidityHigh,HumidityAvg,HumidityLow,PressureMaxIn,PressureMinIn,WindSpeedMaxMPH,WindSpeedAvgMPH,GustSpeedMaxMPH,PrecipitationSumIn
2013-1-1,19,16,7,-100,-100,-100,0,0,100,0.00,40.00,0,-999,0,0.00
2013-1-2,29,19,7,-100,-100,-100,0,0,100,0.00,40.00,0,-999,0,0.00
2013-1-3,30,20,7,-100,-100,-100,0,0,100,0.00,40.00,0,-999,0,0.00
2013-1-4,37,23,9,-100,-100,-100,0,0,100,0.00,40.00,0,-999,0,0.00
2013-1-5,36,30,22,-100,-100,-100,0,0,100,0.00,40.00,0,-999,0,0.00
2013-1-6,40,29,19,-100,-100,-100,0,0,100,0.00,40.00,0,-999,0,0.00
2013-1-7,47,40,32,-100,-100,-100,0,0,100,0.00,40.00,0,-999,0,0.00
2013-1-8,48,39,31,-100,-100,-100,0,0,100,0.00,40.00,0,-999,0,0.00
2013-1-9,51,37,26,-100,-100,-100,0,0,100,0.00,40.00,0,-999,0,0.00
2013-1-10,44,39,33,-100,-100,-100,0,0,100,0.00,40.00,0,-999,0,0.00
2013-1-11,55,46,36,-100,-100,-100,0,0,100,0.00,40.00,0,-999,0,0.00
2013-1-12,26,22,18,-100,-100,-100,0,0,100,0.00,40.00,0,-999,0,0.00
2013-1-13,25,16,10,-100,-100,-100,0,0,100,0.00,40.00,0,-999,0,0.00
2013-1-14,29,22,9,-100,-100,-100,0,0,100,0.00,40.00,0,-999,0,0.00
2013-1-15,34,24,15,-100,-100,-100,0,0,100,0.00,40.00,0,-999,0,0.00
2013-1-16,52,34,17,-100,-100,-100,0,0,100,0.00,40.00,0,-999,0,0.00
2013-1-17,53,38,28,-100,-100,-100,0,0,100,0.00,40.00,0,-999,0,0.00
2013-1-18,59,42,30,-100,-100,-100,0,0,100,0.00,40.00,0,-999,0,0.00
2013-1-19,58,38,30,-100,-100,-100,0,0,100,0.00,40.00,0,-999,0,0.00
2013-1-20,35,25,21,-100,-100,-100,0,0,100,0.00,40.00,0,-999,0,0.00
2013-1-21,35,24,16,-100,-100,-100,0,0,100,0.00,40.00,0,-999,0,0.00
2013-1-22,36,23,14,-100,-100,-100,0,0,100,0.00,40.00,0,-999,0,0.00
2013-1-23,43,29,15,-100,-100,-100,0,0,100,0.00,40.00,0,-999,0,0.00
2013-1-24,29,23,12,-100,-100,-100,0,0,100,0.00,40.00,0,-999,0,0.00
2013-1-25,51,33,18,-100,-100,-100,0,0,100,0.00,40.00,0,-999,0,0.00
2013-1-26,56,42,30,-100,-100,-100,0,0,100,0.00,40.00,0,-999,0,0.00
2013-1-27,60,48,32,-100,-100,-100,0,0,100,0.00,40.00,0,-999,0,0.00
2013-1-28,71,57,29,-100,-100,-100,0,0,100,0.00,40.00,0,-999,0,0.00
2013-1-29,36,34,29,-100,-100,-100,0,0,100,0.00,40.00,0,-999,0,0.00
2013-1-30,29,22,12,-100,-100,-100,0,0,100,0.00,40.00,0,-999,0,0.00
2013-1-31,18,15,7,-100,-100,-100,0,0,100,0.00,40.00,0,-999,0,0.00
2013-2-1,34,23,8,-100,-100,-100,0,0,100,0.00,40.00,0,-999,0,0.00
2013-2-2,48,36,28,-100,-100,-100,0,0,100,0.00,40.00,0,-999,0,0.00
2013-2-3,52,42,29,-100,-100,-100,0,0,100,0.00,40.00,0,-999,0,0.00
2013-2-4,46,37,28,-100,-100,-100,0,0,100,0.00,40.00,0,-999,0,0.00
2013-2-5,58,41,25,-100,-100,-100,0,0,100,0.00,40.00,0,-999,0,0.00
2013-2-6,57,45,27,-100,-100,-100,0,0,100,0.00,40.00,0,-999,0,0.00
2013-2-7,51,46,39,-100,-100,-100,0,0,100,0.00,40.00,0,-999,0,0.00
2013-2-8,39,32,25,-100,-100,-100,0,0,100,0.00,40.00,0,-999,0,0.00
2013-2-9,47,38,32,-100,-100,-100,0,0,100,0.00,40.00,0,-999,0,0.00
2013-2-10,43,38,34,-100,-100,-100,0,0,100,0.00,40.00,0,-999,0,0.00
2013-2-11,40,31,25,-100,-100,-100,0,0,100,0.00,40.00,0,-999,0,0.00
2013-2-12,44,34,25,-100,-100,-100,0,0,100,0.00,40.00,0,-999,0,0.00
2013-2-13,54,40,23,-100,-100,-100,0,0,100,0.00,40.00,0,-999,0,0.00
2013-2-14,45,38,32,-100,-100,-100,0,0,100,0.00,40.00,0,-999,0,0.00
2013-2-15,37,26,18,-100,-100,-100,0,0,100,0.00,40.00,0,-999,0,0.00
2013-2-16,54,29,14,-100,-100,-100,0,0,100,0.00,40.00,0,-999,0,0.00
2013-2-17,66,39,22,-100,-100,-100,0,0,100,0.00,40.00,0,-999,0,0.00
2013-2-18,50,41,35,-100,-100,-100,0,0,100,0.00,40.00,0,-999,0,0.00
2013-2-19,38,25,21,-100,-100,-100,0,0,100,0.00,40.00,0,-999,0,0.00
2013-2-20,25,23,21,-100,-100,-100,0,0,100,0.00,40.00,0,-999,0,0.00
2013-2-21,21,19,17,-100,-100,-100,0,0,100,0.00,40.00,0,-999,0,0.00
2013-2-25,32,31,29,-100,-100,-100,0,0,100,0.00,40.00,0,-999,0,0.00
2013-2-26,32,28,25,-100,-100,-100,0,0,100,0.00,40.00,0,-999,0,0.00
2013-2-27,36,29,24,-100,-100,-100,0,0,100,0.00,40.00,0,-999,0,0.00
2013-2-28,32,30,28,-100,-100,-100,0,0,100,0.00,40.00,0,-999,0,0.00
2013-3-1,31,27,20,-100,-100,-100,0,0,100,0.00,40.00,0,-999,0,0.00
2013-3-2,37,24,14,-100,-100,-100,0,0,100,0.00,40.00,0,-999,0,0.00
2013-3-3,47,36,29,-100,-100,-100,0,0,100,0.00,40.00,0,-999,0,0.00
2013-3-4,41,35,28,-100,-100,-100,0,0,100,0.00,40.00,0,-999,0,0.00
2013-3-5,40,31,25,-100,-100,-100,0,0,100,0.00,40.00,0,-999,0,0.00
2013-3-6,44,28,19,-100,-100,-100,0,0,100,0.00,40.00,0,-999,0,0.00
2013-3-7,62,45,29,-100,-100,-100,0,0,100,0.00,40.00,0,-999,0,0.00
2013-3-8,60,47,34,-100,-100,-100,0,0,100,0.00,40.00,0,-999,0,0.00
2013-3-9,60,52,40,-100,-100,-100,0,0,100,0.00,40.00,0,-999,0,0.00
2013-3-10,30,25,24,-100,-100,-100,0,0,100,0.00,40.00,0,-999,0,0.00
2013-3-11,44,33,17,-100,-100,-100,0,0,100,0.00,40.00,0,-999,0,0.00
2013-3-12,45,37,28,-100,-100,-100,0,0,100,0.00,40.00,0,-999,0,0.00
2013-3-13,54,38,23,-100,-100,-100,0,0,100,0.00,40.00,0,-999,0,0.00
2013-3-14,79,58,40,-100,-100,-100,0,0,100,0.00,40.00,0,-999,0,0.00
2013-3-15,82,57,38,-100,-100,-100,0,0,100,0.00,40.00,0,-999,0,0.00
2013-3-16,49,40,32,-100,-100,-100,0,0,100,0.00,40.00,0,-999,0,0.00
2013-3-17,41,34,29,-100,-100,-100,0,0,100,0.00,40.00,0,-999,0,0.00
2013-3-18,52,39,31,-100,-100,-100,0,0,100,0.00,40.00,0,-999,0,0.00
2013-3-19,48,39,25,-100,-100,-100,0,0,100,0.00,40.00,0,-999,0,0.00
2013-3-20,45,33,22,-100,-100,-100,0,0,100,0.00,40.00,0,-999,0,0.00
2013-3-21,46,37,31,-100,-100,-100,0,0,100,0.00,40.00,0,-999,0,0.00
2013-3-22,43,35,27,-100,-100,-100,0,0,100,0.00,40.00,0,-999,0,0.00
2013-3-23,32,30,28,-100,-100,-100,0,0,100,0.00,40.00,0,-999,0,0.00
2013-3-24,32,26,19,-100,-100,-100,0,0,100,0.00,40.00,0,-999,0,0.00
2013-3-25,30,26,21,-100,-100,-100,0,0,100,0.00,40.00,0,-999,0,0.00
2013-3-26,46,32,14,-100,-100,-100,0,0,100,0.00,40.00,0,-999,0,0.00
2013-3-27,60,46,30,-100,-100,-100,0,0,100,0.00,40.00,0,-999,0,0.00
2013-3-28,67,47,26,-100,-100,-100,0,0,100,0.00,40.00,0,-999,0,0.00
2013-3-29,71,50,38,-100,-100,-100,0,0,100,0.00,40.00,0,-999,0,0.00
2013-3-30,68,57,48,-100,-100,-100,0,0,100,0.00,40.00,0,-999,0,0.00
2013-3-31,62,50,40,-100,-100,-100,0,0,100,0.00,40.00,0,-999,0,0.00
2013-4-1,47,38,30,-100,-100,-100,0,0,100,0.00,40.00,0,-999,0,0.00
2013-4-2,51,40,31,-100,-100,-100,0,0,100,0.00,40.00,0,-999,0,0.00
2013-4-3,43,39,36,-100,-100,-100,0,0,100,0.00,40.00,0,-999,0,0.00
2013-4-4,65,46,37,-100,-100,-100,0,0,100,0.00,40.00,0,-999,0,0.00
2013-4-5,65,49,37,-100,-100,-100,0,0,100,0.00,40.00,0,-999,0,0.00
2013-4-6,72,59,47,-100,-100,-100,0,0,100,0.00,40.00,0,-999,0,0.00
2013-4-7,73,58,44,-100,-100,-100,0,0,100,0.00,40.00,0,-999,0,0.00
2013-4-8,75,66,55,-100,-100,-100,0,0,100,0.00,40.00,0,-999,0,0.00
2013-4-9,68,48,28,-100,-100,-100,0,0,100,0.00,40.00,0,-999,0,0.00
2013-4-10,28,27,26,-100,-100,-100,0,0,100,0.00,40.00,0,-999,0,0.00
2013-4-11,42,30,23,-100,-100,-100,0,0,100,0.00,40.00,0,-999,0,0.00
2013-4-12,53,42,27,-100,-100,-100,0,0,100,0.00,40.00,0,-999,0,0.00
2013-4-13,65,48,31,-100,-100,-100,0,0,100,0.00,40.00,0,-999,0,0.00
2013-4-14,65,60,51,-100,-100,-100,0,0,100,0.00,40.00,0,-999,0,0.00
2013-4-15,51,44,40,-100,-100,-100,0,0,100,0.00,40.00,0,-999,0,0.00
2013-4-16,44,39,35,-100,-100,-100,0,0,100,0.00,40.00,0,-999,0,0.00
2013-4-17,41,39,36,-100,-100,-100,0,0,100,0.00,40.00,0,-999,0,0.00
2013-4-18,34,32,29,-100,-100,-100,0,0,100,0.00,40.00,0,-999,0,0.00
2013-4-19,54,42,28,-100,-100,-100,0,0,100,0.00,40.00,0,-999,0,0.00
2013-4-20,60,42,29,-100,-100,-100,0,0,100,0.00,40.00,0,-999,0,0.00
2013-4-21,67,57,47,-100,-100,-100,0,0,100,0.00,40.00,0,-999,0,0.00
2013-4-22,54,46,33,-100,-100,-100,0,0,100,0.00,40.00,0,-999,0,0.00
2013-4-23,32,29,27,-100,-100,-100,0,0,100,0.00,40.00,0,-999,0,0.00
2013-4-24,58,40,22,-100,-100,-100,0,0,100,0.00,40.00,0,-999,0,0.00
2013-4-25,65,47,29,-100,-100,-100,0,0,100,0.00,40.00,0,-999,0,0.00
2013-4-26,58,50,43,-100,-100,-100,0,0,100,0.00,40.00,0,-999,0,0.00
2013-4-27,73,55,47,-100,-100,-100,0,0,100,0.00,40.00,0,-999,0,0.00
2013-4-28,77,66,46,-100,-100,-100,0,0,100,0.00,40.00,0,-999,0,0.00
2013-4-29,76,66,49,-100,-100,-100,0,0,100,0.00,40.00,0,-999,0,0.00
2013-4-30,83,71,61,-100,-100,-100,0,0,100,0.00,40.00,0,-999,0,0.00
2013-5-1,65,47,34,-100,-100,-100,0,0,100,0.00,40.00,0,-999,0,0.00
2013-5-7,73,71,66,-100,-100,-100,0,0,100,0.00,40.00,0,-999,0,0.00
2013-5-8,76,68,59,-100,-100,-100,0,0,100,0.00,40.00,0,-999,0,0.00
2013-5-9,66,57,52,-100,-100,-100,0,0,100,0.00,40.00,0,-999,0,0.00
2013-5-10,69,60,52,-100,-100,-100,0,0,100,0.00,40.00,0,-999,0,0.00
2013-5-11,63,54,46,-100,-100,-100,0,0,100,0.00,40.00,0,-999,0,0.00
2013-5-12,69,53,39,-100,-100,-100,0,0,100,0.00,40.00,0,-999,0,0.00
2013-5-13,83,60,40,-100,-100,-100,0,0,100,0.00,40.00,0,-999,0,0.00
2013-5-14,94,75,59,-100,-100,-100,0,0,100,0.00,40.00,0,-999,0,0.00
2013-5-15,85,68,62,-100,-100,-100,0,0,100,0.00,40.00,0,-999,0,0.00
2013-5-16,81,67,55,-100,-100,-100,0,0,100,0.00,40.00,0,-999,0,0.00
2013-5-17,87,71,54,-100,-100,-100,0,0,100,0.00,40.00,0,-999,0,0.00
2013-5-18,83,74,61,-100,-100,-100,0,0,100,0.00,40.00,0,-999,0,0.00
2013-5-19,76,68,55,-100,-100,-100,0,0,100,0.00,40.00,0,-999,0,0.00
2013-5-20,75,63,51,-100,-100,-100,0,0,100,0.00,40.00,0,-999,0,0.00
2013-5-21,69,59,47,-100,-100,-100,0,0,100,0.00,40.00,0,-999,0,0.00
2013-5-22,71,59,47,-100,-100,-100,0,0,100,0.00,40.00,0,-999,0,0.00
2013-5-23,73,60,47,-100,-100,-100,0,0,100,0.00,40.00,0,-999,0,0.00
2013-5-24,76,65,54,-100,-100,-100,0,0,100,0.00,40.00,0,-999,0,0.00
2013-5-25,83,75,66,-100,-100,-100,0,0,100,0.00,40.00,0,-999,0,0.00
2013-5-26,85,73,66,-100,-100,-100,0,0,100,0.00,40.00,0,-999,0,0.00
2013-5-27,84,74,70,-100,-100,-100,0,0,100,0.00,40.00,0,-999,0,0.00
2013-5-28,87,76,67,-100,-100,-100,0,0,100,0.00,40.00,0,-999,0,0.00
2013-5-29,83,70,59,-100,-100,-100,0,0,100,0.00,40.00,0,-999,0,0.00
2013-5-30,71,62,55,-100,-100,-100,0,0,100,0.00,40.00,0,-999,0,0.00
2013-5-31,80,71,64,-100,-100,-100,0,0,100,0.00,40.00,0,-999,0,0.00
2013-6-1,67,59,54,-100,-100,-100,0,0,100,0.00,40.00,0,-999,0,0.00
2013-6-2,70,58,47,-100,-100,-100,0,0,100,0.00,40.00,0,-999,0,0.00
2013-6-3,79,65,50,-100,-100,-100,0,0,100,0.00,40.00,0,-999,0,0.00
2013-6-4,83,72,63,-100,-100,-100,0,0,100,0.00,40.00,0,-999,0,0.00
2013-6-5,68,63,58,-100,-100,-100,0,0,100,0.00,40.00,0,-999,0,0.00
2013-6-6,73,64,52,-100,-100,-100,0,0,100,0.00,40.00,0,-999,0,0.00
2013-6-7,83,63,50,-100,-100,-100,0,0,100,0.00,40.00,0,-999,0,0.00
2013-6-8,80,68,59,-100,-100,-100,0,0,100,0.00,40.00,0,-999,0,0.00
2013-6-9,83,67,54,-100,-100,-100,0,0,100,0.00,40.00,0,-999,0,0.00
2013-6-10,92,77,55,-100,-100,-100,0,0,100,0.00,40.00,0,-999,0,0.00
2013-6-11,95,84,73,-100,-100,-100,0,0,100,0.00,40.00,0,-999,0,0.00
2013-6-12,93,82,74,-100,-100,-100,0,0,100,0.00,40.00,0,-999,0,0.00
2013-6-13,87,72,56,-100,-100,-100,0,0,100,0.00,40.00,0,-999,0,0.00
2013-6-14,98,83,70,-100,-100,-100,0,0,100,0.00,40.00,0,-999,0,0.00
2013-6-15,81,75,69,-100,-100,-100,0,0,100,0.00,40.00,0,-999,0,0.00
2013-6-16,90,75,65,-100,-100,-100,0,0,100,0.00,40.00,0,-999,0,0.00
2013-6-17,87,75,63,-100,-100,-100,0,0,100,0.00,40.00,0,-999,0,0.00
2013-6-18,91,77,63,-100,-100,-100,0,0,100,0.00,40.00,0,-999,0,0.00
2013-6-19,87,79,64,-100,-100,-100,0,0,100,0.00,40.00,0,-999,0,0.00
2013-6-20,89,76,67,-100,-100,-100,0,0,100,0.00,40.00,0,-999,0,0.00
2013-6-22,94,85,80,-100,-100,-100,0,0,100,0.00,40.00,0,-999,0,0.00
2013-6-23,93,85,77,-100,-100,-100,0,0,100,0.00,40.00,0,-999,0,0.00
2013-6-24,90,80,76,-100,-100,-100,0,0,100,0.00,40.00,0,-999,0,0.00
2013-6-25,97,92,87,-100,-100,-100,0,0,100,0.00,40.00,0,-999,0,0.00
2013-6-26,105,85,66,-100,-100,-100,0,0,100,0.00,40.00,0,-999,0,0.00
2013-6-27,87,77,72,-100,-100,-100,0,0,100,0.00,40.00,0,-999,0,0.00
2013-6-28,90,79,65,-100,-100,-100,0,0,100,0.00,40.00,0,-999,0,0.00
2013-6-29,86,73,62,-100,-100,-100,0,0,100,0.00,40.00,0,-999,0,0.00
2013-6-30,76,70,58,-100,-100,-100,0,0,100,0.00,40.00,0,-999,0,0.00
2013-7-1,81,66,51,-100,-100,-100,0,0,100,0.00,40.00,0,-999,0,0.00
2013-7-2,84,70,54,-100,-100,-100,0,0,100,0.00,40.00,0,-999,0,0.00
2013-7-3,87,72,59,-100,-100,-100,0,0,100,0.00,40.00,0,-999,0,0.00
2013-7-4,92,78,65,-100,-100,-100,0,0,100,0.00,40.00,0,-999,0,0.00
2013-7-5,92,82,69,-100,-100,-100,0,0,100,0.00,40.00,0,-999,0,0.00
2013-7-6,85,76,73,-100,-100,-100,0,0,100,0.00,40.00,0,-999,0,0.00
2013-7-7,98,83,74,-100,-100,-100,0,0,100,0.00,40.00,0,-999,0,0.00
2013-7-8,98,84,74,-100,-100,-100,0,0,100,0.00,40.00,0,-999,0,0.00
2013-7-9,107,90,79,-100,-100,-100,0,0,100,0.00,40.00,0,-999,0,0.00
2013-7-10,91,76,67,-100,-100,-100,0,0,100,0.00,40.00,0,-999,0,0.00
2013-7-11,89,74,66,-100,-100,-100,0,0,100,0.00,40.00,0,-999,0,0.00
2013-7-12,99,84,68,-100,-100,-100,0,0,100,0.00,40.00,0,-999,0,0.00
2013-7-13,98,85,75,-100,-100,-100,0,0,100,0.00,40.00,0,-999,0,0.00
2013-7-14,86,76,69,-100,-100,-100,0,0,100,0.00,40.00,0,-999,0,0.00
2013-7-15,78,69,62,-100,-100,-100,0,0,100,0.00,40.00,0,-999,0,0.00
2013-7-16,91,75,62,-100,-100,-100,0,0,100,0.00,40.00,0,-999,0,0.00
2013-7-17,91,81,69,-100,-100,-100,0,0,100,0.00,40.00,0,-999,0,0.00
2013-7-18,91,85,69,-100,-100,-100,0,0,100,0.00,40.00,0,-999,0,0.00
2013-7-19,97,82,69,-100,-100,-100,0,0,100,0.00,40.00,0,-999,0,0.00
2013-7-20,92,78,70,-100,-100,-100,0,0,100,0.00,40.00,0,-999,0,0.00
2013-7-21,86,73,68,-100,-100,-100,0,0,100,0.00,40.00,0,-999,0,0.00
2013-7-22,89,80,73,-100,-100,-100,0,0,100,0.00,40.00,0,-999,0,0.00
2013-7-23,91,73,66,-100,-100,-100,0,0,100,0.00,40.00,0,-999,0,0.00
2013-7-24,86,76,63,-100,-100,-100,0,0,100,0.00,40.00,0,-999,0,0.00
2013-7-25,76,72,67,-100,-100,-100,0,0,100,0.00,40.00,0,-999,0,0.00
2013-7-26,82,70,62,-100,-100,-100,0,0,100,0.00,40.00,0,-999,0,0.00
2013-7-27,69,61,56,-100,-100,-100,0,0,100,0.00,40.00,0,-999,0,0.00
2013-7-28,62,59,54,-100,-100,-100,0,0,100,0.00,40.00,0,-999,0,0.00
2013-7-29,69,65,59,-100,-100,-100,0,0,100,0.00,40.00,0,-999,0,0.00
2013-7-30,80,72,65,-100,-100,-100,0,0,100,0.00,40.00,0,-999,0,0.00
2013-7-31,84,71,62,-100,-100,-100,0,0,100,0.00,40.00,0,-999,0,0.00
2013-8-1,89,76,67,-100,-100,-100,0,0,100,0.00,40.00,0,-999,0,0.00
2013-8-2,90,78,65,-100,-100,-100,0,0,100,0.00,40.00,0,-999,0,0.00
2013-8-3,82,76,69,-100,-100,-100,0,0,100,0.00,40.00,0,-999,0,0.00
2013-8-4,81,74,69,-100,-100,-100,0,0,100,0.00,40.00,0,-999,0,0.00
2013-8-5,82,75,69,-100,-100,-100,0,0,100,0.00,40.00,0,-999,0,0.00
2013-8-6,92,76,66,-100,-100,-100,0,0,100,0.00,40.00,0,-999,0,0.00
2013-8-7,82,74,68,-100,-100,-100,0,0,100,0.00,40.00,0,-999,0,0.00
2013-8-8,74,69,65,-100,-100,-100,0,0,100,0.00,40.00,0,-999,0,0.00
2013-8-9,80,71,65,-100,-100,-100,0,0,100,0.00,40.00,0,-999,0,0.00
2013-8-10,87,72,59,-100,-100,-100,0,0,100,0.00,40.00,0,-999,0,0.00
2013-8-11,87,76,65,-100,-100,-100,0,0,100,0.00,40.00,0,-999,0,0.00
2013-8-12,84,70,62,-100,-100,-100,0,0,100,0.00,40.00,0,-999,0,0.00
2013-8-13,78,69,66,-100,-100,-100,0,0,100,0.00,40.00,0,-999,0,0.00
2013-8-14,83,68,58,-100,-100,-100,0,0,100,0.00,40.00,0,-999,0,0.00
2013-8-15,78,66,60,-100,-100,-100,0,0,100,0.00,40.00,0,-999,0,0.00
2013-8-16,81,70,59,-100,-100,-100,0,0,100,0.00,40.00,0,-999,0,0.00
2013-8-17,82,70,59,-100,-100,-100,0,0,100,0.00,40.00,0,-999,0,0.00
2013-8-18,83,73,59,-100,-100,-100,0,0,100,0.00,40.00,0,-999,0,0.00
2013-8-19,86,74,65,-100,-100,-100,0,0,100,0.00,40.00,0,-999,0,0.00
2013-8-20,89,76,66,-100,-100,-100,0,0,100,0.00,40.00,0,-999,0,0.00
2013-8-21,92,83,69,-100,-100,-100,0,0,100,0.00,40.00,0,-999,0,0.00
2013-8-22,93,78,69,-100,-100,-100,0,0,100,0.00,40.00,0,-999,0,0.00
2013-8-23,90,78,66,-100,-100,-100,0,0,100,0.00,40.00,0,-999,0,0.00
2013-8-24,93,82,73,-100,-100,-100,0,0,100,0.00,40.00,0,-999,0,0.00
2013-8-25,94,82,72,-100,-100,-100,0,0,100,0.00,40.00,0,-999,0,0.00
2013-8-26,93,82,73,-100,-100,-100,0,0,100,0.00,40.00,0,-999,0,0.00
2013-8-27,89,77,71,-100,-100,-100,0,0,100,0.00,40.00,0,-999,0,0.00
2013-8-28,91,85,78,-100,-100,-100,0,0,100,0.00,40.00,0,-999,0,0.00
2013-8-29,97,84,71,-100,-100,-100,0,0,100,0.00,40.00,0,-999,0,0.00
2013-8-30,101,84,69,-100,-100,-100,0,0,100,0.00,40.00,0,-999,0,0.00
2013-8-31,100,86,71,-100,-100,-100,0,0,100,0.00,40.00,0,-999,0,0.00
2013-9-1,86,78,69,-100,-100,-100,0,0,100,0.00,40.00,0,-999,0,0.00
2013-9-2,82,73,56,-100,-100,-100,0,0,100,0.00,40.00,0,-999,0,0.00
2013-9-3,94,74,54,-100,-100,-100,0,0,100,0.00,40.00,0,-999,0,0.00
2013-9-4,90,76,60,-100,-100,-100,0,0,100,0.00,40.00,0,-999,0,0.00
2013-9-5,96,73,62,-100,-100,-100,0,0,100,0.00,40.00,0,-999,0,0.00
2013-9-6,96,85,71,-100,-100,-100,0,0,100,0.00,40.00,0,-999,0,0.00
2013-9-7,101,86,69,-100,-100,-100,0,0,100,0.00,40.00,0,-999,0,0.00
2013-9-8,101,85,73,-100,-100,-100,0,0,100,0.00,40.00,0,-999,0,0.00
2013-9-9,93,83,68,-100,-100,-100,0,0,100,0.00,40.00,0,-999,0,0.00
2013-9-10,94,81,70,-100,-100,-100,0,0,100,0.00,40.00,0,-999,0,0.00
2013-9-11,91,78,69,-100,-100,-100,0,0,100,0.00,40.00,0,-999,0,0.00
2013-9-12,76,71,67,-100,-100,-100,0,0,100,0.00,40.00,0,-999,0,0.00
2013-9-13,72,67,62,-100,-100,-100,0,0,100,0.00,40.00,0,-999,0,0.00
2013-9-14,80,68,56,-100,-100,-100,0,0,100,0.00,40.00,0,-999,0,0.00
2013-9-15,79,69,62,-100,-100,-100,0,0,100,0.00,40.00,0,-999,0,0.00
2013-9-16,60,58,57,-100,-100,-100,0,0,100,0.00,40.00,0,-999,0,0.00
2013-9-17,80,68,60,-100,-100,-100,0,0,100,0.00,40.00,0,-999,0,0.00
2013-9-18,76,70,68,-100,-100,-100,0,0,100,0.00,40.00,0,-999,0,0.00
2013-9-19,83,75,65,-100,-100,-100,0,0,100,0.00,40.00,0,-999,0,0.00
2013-9-20,75,63,52,-100,-100,-100,0,0,100,0.00,40.00,0,-999,0,0.00
2013-9-21,85,67,48,-100,-100,-100,0,0,100,0.00,40.00,0,-999,0,0.00
2013-9-22,80,70,56,-100,-100,-100,0,0,100,0.00,40.00,0,-999,0,0.00
2013-9-23,77,68,55,-100,-100,-100,0,0,100,0.00,40.00,0,-999,0,0.00
2013-9-24,73,64,57,-100,-100,-100,0,0,100,0.00,40.00,0,-999,0,0.00
2013-9-25,85,62,47,-100,-100,-100,0,0,100,0.00,40.00,0,-999,0,0.00
2013-9-26,91,75,63,-100,-100,-100,0,0,100,0.00,40.00,0,-999,0,0.00
2013-9-27,86,78,68,-100,-100,-100,0,0,100,0.00,40.00,0,-999,0,0.00
2013-9-28,72,58,47,-100,-100,-100,0,0,100,0.00,40.00,0,-999,0,0.00
2013-9-29,77,55,43,-100,-100,-100,0,0,100,0.00,40.00,0,-999,0,0.00
2013-9-30,80,69,46,-100,-100,-100,0,0,100,0.00,40.00,0,-999,0,0.00
2013-10-1,69,69,69,-100,-100,-100,0,0,100,0.00,40.00,0,-999,0,0.00
2013-10-2,80,72,63,-100,-100,-100,0,0,100,0.00,40.00,0,-999,0,0.00
2013-10-3,84,73,64,-100,-100,-100,0,0,100,0.00,40.00,0,-999,0,0.00
2013-10-4,83,71,51,-100,-100,-100,0,0,100,0.00,40.00,0,-999,0,0.00
2013-10-5,58,48,43,-100,-100,-100,0,0,100,0.00,40.00,0,-999,0,0.00
2013-10-6,65,52,44,-100,-100,-100,0,0,100,0.00,40.00,0,-999,0,0.00
2013-10-7,74,56,39,-100,-100,-100,0,0,100,0.00,40.00,0,-999,0,0.00
2013-10-8,79,64,51,-100,-100,-100,0,0,100,0.00,40.00,0,-999,0,0.00
2013-10-9,80,65,55,-100,-100,-100,0,0,100,0.00,40.00,0,-999,0,0.00
2013-10-10,80,68,59,-100,-100,-100,0,0,100,0.00,40.00,0,-999,0,0.00
2013-10-11,76,68,56,-100,-100,-100,0,0,100,0.00,40.00,0,-999,0,0.00
2013-10-12,65,54,40,-100,-100,-100,0,0,100,0.00,40.00,0,-999,0,0.00
2013-10-13,72,52,35,-100,-100,-100,0,0,100,0.00,40.00,0,-999,0,0.00
2013-10-14,63,59,53,-100,-100,-100,0,0,100,0.00,40.00,0,-999,0,0.00
2013-10-15,55,48,41,-100,-100,-100,0,0,100,0.00,40.00,0,-999,0,0.00
2013-10-16,52,46,40,-100,-100,-100,0,0,100,0.00,40.00,0,-999,0,0.00
2013-10-17,62,46,36,-100,-100,-100,0,0,100,0.00,40.00,0,-999,0,0.00
2013-10-18,42,35,30,-100,-100,-100,0,0,100,0.00,40.00,0,-999,0,0.00
2013-10-19,62,44,29,-100,-100,-100,0,0,100,0.00,40.00,0,-999,0,0.00
2013-10-20,64,55,41,-100,-100,-100,0,0,100,0.00,40.00,0,-999,0,0.00
2013-10-21,58,46,33,-100,-100,-100,0,0,100,0.00,40.00,0,-999,0,0.00
2013-10-22,62,53,42,-100,-100,-100,0,0,100,0.00,40.00,0,-999,0,0.00
2013-10-23,65,44,31,-100,-100,-100,0,0,100,0.00,40.00,0,-999,0,0.00
2013-10-24,49,41,32,-100,-100,-100,0,0,100,0.00,40.00,0,-999,0,0.00
2013-10-25,58,46,29,-100,-100,-100,0,0,100,0.00,40.00,0,-999,0,0.00
2013-10-26,57,48,36,-100,-100,-100,0,0,100,0.00,40.00,0,-999,0,0.00
2013-10-27,69,50,29,-100,-100,-100,0,0,100,0.00,40.00,0,-999,0,0.00
2013-10-28,63,57,37,-100,-100,-100,0,0,100,0.00,40.00,0,-999,0,0.00
2013-10-29,58,55,51,-100,-100,-100,0,0,100,0.00,40.00,0,-999,0,0.00
2013-10-30,49,47,47,-100,-100,-100,0,0,100,0.00,40.00,0,-999,0,0.00
2013-10-31,61,49,42,-100,-100,-100,0,0,100,0.00,40.00,0,-999,0,0.00
2013-11-1,59,51,37,-100,-100,-100,0,0,100,0.00,40.00,0,-999,0,0.00
2013-11-2,62,45,35,-100,-100,-100,0,0,100,0.00,40.00,0,-999,0,0.00
2013-11-3,62,49,42,-100,-100,-100,0,0,100,0.00,40.00,0,-999,0,0.00
2013-11-4,59,51,44,-100,-100,-100,0,0,100,0.00,40.00,0,-999,0,0.00
2013-11-5,56,50,40,-100,-100,-100,0,0,100,0.00,40.00,0,-999,0,0.00
2013-11-6,43,35,31,-100,-100,-100,0,0,100,0.00,40.00,0,-999,0,0.00
2013-11-7,58,41,29,-100,-100,-100,0,0,100,0.00,40.00,0,-999,0,0.00
2013-11-8,65,53,34,-100,-100,-100,0,0,100,0.00,40.00,0,-999,0,0.00
2013-11-9,63,46,32,-100,-100,-100,0,0,100,0.00,40.00,0,-999,0,0.00
2013-11-10,59,49,36,-100,-100,-100,0,0,100,0.00,40.00,0,-999,0,0.00
2013-11-11,48,38,25,-100,-100,-100,0,0,100,0.00,40.00,0,-999,0,0.00
2013-11-12,35,24,16,-100,-100,-100,0,0,100,0.00,40.00,0,-999,0,0.00
2013-11-13,52,36,21,-100,-100,-100,0,0,100,0.00,40.00,0,-999,0,0.00
2013-11-14,54,44,36,-100,-100,-100,0,0,100,0.00,40.00,0,-999,0,0.00
2013-11-15,54,45,26,-100,-100,-100,0,0,100,0.00,40.00,0,-999,0,0.00
2013-11-16,69,57,50,-100,-100,-100,0,0,100,0.00,40.00,0,-999,0,0.00
2013-11-17,59,50,37,-100,-100,-100,0,0,100,0.00,40.00,0,-999,0,0.00
2013-11-18,58,44,26,-100,-100,-100,0,0,100,0.00,40.00,0,-999,0,0.00
2013-11-19,59,53,43,-100,-100,-100,0,0,100,0.00,40.00,0,-999,0,0.00
2013-11-20,64,56,48,-100,-100,-100,0,0,100,0.00,40.00,0,-999,0,0.00
2013-11-21,48,29,20,-100,-100,-100,0,0,100,0.00,40.00,0,-999,0,0.00
2013-11-22,26,22,17,-100,-100,-100,0,0,100,0.00,40.00,0,-999,0,0.00
2013-11-23,26,22,17,-100,-100,-100,0,0,100,0.00,40.00,0,-999,0,0.00
2013-11-24,27,22,17,-100,-100,-100,0,0,100,0.00,40.00,0,-999,0,0.00
2013-11-25,36,28,22,-100,-100,-100,0,0,100,0.00,40.00,0,-999,0,0.00
2013-11-26,35,27,14,-100,-100,-100,0,0,100,0.00,40.00,0,-999,0,0.00
2013-11-27,37,27,9,-100,-100,-100,0,0,100,0.00,40.00,0,-999,0,0.00
2013-11-28,36,27,19,-100,-100,-100,0,0,100,0.00,40.00,0,-999,0,0.00
2013-11-29,51,31,18,-100,-100,-100,0,0,100,0.00,40.00,0,-999,0,0.00
2013-11-30,55,39,24,-100,-100,-100,0,0,100,0.00,40.00,0,-999,0,0.00
2013-12-1,55,37,21,-100,-100,-100,0,0,100,0.00,40.00,0,-999,0,0.00
2013-12-2,64,44,28,-100,-100,-100,0,0,100,0.00,40.00,0,-999,0,0.00
2013-12-3,64,45,32,-100,-100,-100,0,0,100,0.00,40.00,0,-999,0,0.00
2013-12-4,34,22,18,-100,-100,-100,0,0,100,0.00,40.00,0,-999,0,0.00
2013-12-5,15,13,10,-100,-100,-100,0,0,100,0.00,40.00,0,-999,0,0.00
2013-12-6,13,10,5,-100,-100,-100,0,0,100,0.00,40.00,0,-999,0,0.00
2013-12-7,18,12,2,-100,-100,-100,0,0,100,0.00,40.00,0,-999,0,0.00
2013-12-8,21,16,7,-100,-100,-100,0,0,100,0.00,40.00,0,-999,0,0.00
2013-12-9,14,9,3,-100,-100,-100,0,0,100,0.00,40.00,0,-999,0,0.00
2013-12-10,40,28,10,-100,-100,-100,0,0,100,0.00,40.00,0,-999,0,0.00
2013-12-11,23,18,13,-100,-100,-100,0,0,100,0.00,40.00,0,-999,0,0.00
2013-12-12,47,29,14,-100,-100,-100,0,0,100,0.00,40.00,0,-999,0,0.00
2013-12-13,45,38,25,-100,-100,-100,0,0,100,0.00,40.00,0,-999,0,0.00
2013-12-14,29,21,16,-100,-100,-100,0,0,100,0.00,40.00,0,-999,0,0.00
2013-12-15,54,36,16,-100,-100,-100,0,0,100,0.00,40.00,0,-999,0,0.00
2013-12-16,59,43,27,-100,-100,-100,0,0,100,0.00,40.00,0,-999,0,0.00
2013-12-17,49,39,25,-100,-100,-100,0,0,100,0.00,40.00,0,-999,0,0.00
2013-12-18,65,45,29,-100,-100,-100,0,0,100,0.00,40.00,0,-999,0,0.00
2013-12-19,55,42,27,-100,-100,-100,0,0,100,0.00,40.00,0,-999,0,0.00
2013-12-20,19,16,12,-100,-100,-100,0,0,100,0.00,40.00,0,-999,0,0.00
2013-12-21,23,21,18,-100,-100,-100,0,0,100,0.00,40.00,0,-999,0,0.00
2013-12-22,25,20,18,-100,-100,-100,0,0,100,0.00,40.00,0,-999,0,0.00
2013-12-23,18,12,-3,-100,-100,-100,0,0,100,0.00,40.00,0,-999,0,0.00
2013-12-24,27,20,13,-100,-100,-100,0,0,100,0.00,40.00,0,-999,0,0.00
2013-12-25,40,31,18,-100,-100,-100,0,0,100,0.00,40.00,0,-999,0,0.00
2013-12-26,41,31,18,-100,-100,-100,0,0,100,0.00,40.00,0,-999,0,0.00
2013-12-27,49,30,14,-100,-100,-100,0,0,100,0.00,40.00,0,-999,0,0.00
2013-12-28,43,33,22,-100,-100,-100,0,0,100,0.00,40.00,0,-999,0,0.00
2013-12-29,28,13,3,-100,-100,-100,0,0,100,0.00,40.00,0,-999,0,0.00
2013-12-30,37,21,3,-100,-100,-100,0,0,100,0.00,40.00,0,-999,0,0.00
2013-12-31,47,31,14,-100,-100,-100,0,0,100,0.00,40.00,0,-999,0,0.00
2014-1-1,29,15,7,-100,-100,-100,0,0,100,0.00,40.00,0,-999,0,0.00
2014-1-2,24,12,3,-100,-100,-100,0,0,100,0.00,40.00,0,-999,0,0.00